Time;durP1;ratioP1;P1;durP2;ratioP2;P2;SDS_P1;SDS_P2;PMS_P1;PMS_P2;Temp;Humidity;BMP_temperature;BMP_pressure;BME280_temperature;BME280_humidity;BME280_pressure;Samples;Min_cycle;Max_cycle;Signal;HPM_P1;HPM_P2
2024/01/29 00:00:03;;;;;;;;;30.50;29.75;;;;;13.06;100.00;101927.44;2089110;28;46443;-68
2024/01/29 00:01:03;;;;;;;;;34.80;32.00;;;;;13.00;100.00;101932.88;2096967;28;45653;-68
2024/01/29 00:02:05;;;;;;;;;32.20;30.40;;;;;13.07;100.00;101931.88;2096250;28;46583;-69
2024/01/29 00:03:06;;;;;;;;;36.50;31.00;;;;;12.97;100.00;101932.91;2096155;28;46665;-69
2024/01/29 00:04:06;;;;;;;;;33.75;32.75;;;;;12.94;100.00;101932.94;2095588;28;46530;-69
2024/01/29 00:05:06;;;;;;;;;30.50;28.50;;;;;12.91;100.00;101936.53;2096295;28;46187;-68
2024/01/29 00:06:07;;;;;;;;;38.75;35.00;;;;;13.10;100.00;101937.19;2095840;28;45549;-69
2024/01/29 00:07:07;;;;;;;;;35.00;33.00;;;;;12.93;100.00;101937.38;2097187;28;46463;-69
2024/01/29 00:08:07;;;;;;;;;32.50;31.00;;;;;12.99;100.00;101940.91;2097172;28;46206;-69
2024/01/29 00:09:08;;;;;;;;;33.00;32.00;;;;;12.95;100.00;101934.69;2097079;28;46056;-68
2024/01/29 00:10:08;;;;;;;;;35.75;33.00;;;;;13.01;100.00;101939.09;2097216;28;46352;-69
2024/01/29 00:11:09;;;;;;;;;32.50;30.00;;;;;12.90;100.00;101937.44;2085712;28;46276;-68
2024/01/29 00:12:09;;;;;;;;;32.50;32.00;;;;;12.85;100.00;101944.59;2082425;28;45684;-69
2024/01/29 00:13:10;;;;;;;;;32.25;31.00;;;;;12.99;100.00;101943.56;2096978;28;46167;-69
2024/01/29 00:14:10;;;;;;;;;38.00;34.75;;;;;12.88;100.00;101941.91;2094208;28;46093;-68
2024/01/29 00:15:10;;;;;;;;;34.50;32.75;;;;;12.81;100.00;101937.53;2096799;28;46951;-69
2024/01/29 00:16:11;;;;;;;;;37.75;34.00;;;;;12.89;100.00;101935.66;2096236;28;47582;-69
2024/01/29 00:17:11;;;;;;;;;34.50;33.25;;;;;12.93;100.00;101942.72;2096941;28;46552;-69
2024/01/29 00:18:11;;;;;;;;;34.50;30.50;;;;;12.92;100.00;101942.72;2096793;28;46225;-69
2024/01/29 00:19:11;;;;;;;;;32.75;31.50;;;;;12.95;100.00;101940.03;2094679;28;46558;-69
2024/01/29 00:20:12;;;;;;;;;36.25;32.75;;;;;12.99;100.00;101949.78;2099553;28;46440;-68
2024/01/29 00:21:12;;;;;;;;;34.50;32.00;;;;;12.97;100.00;101946.25;2097658;27;45761;-70
2024/01/29 00:22:13;;;;;;;;;31.25;31.25;;;;;12.89;100.00;101941.00;2096497;28;46851;-69
2024/01/29 00:23:14;;;;;;;;;35.25;33.00;;;;;12.91;100.00;101952.50;2096654;28;46118;-69
2024/01/29 00:24:14;;;;;;;;;36.20;33.80;;;;;12.91;100.00;101948.97;2097164;28;46498;-69
2024/01/29 00:25:14;;;;;;;;;29.00;27.75;;;;;12.93;100.00;101957.81;2097254;28;46256;-69
2024/01/29 00:26:15;;;;;;;;;36.25;34.50;;;;;12.88;100.00;101957.88;2096641;28;46571;-69
2024/01/29 00:27:15;;;;;;;;;34.75;31.50;;;;;12.85;100.00;101954.38;2096974;28;46127;-69
2024/01/29 00:28:15;;;;;;;;;38.75;34.50;;;;;12.83;100.00;101956.16;2096993;28;45554;-69
2024/01/29 00:29:16;;;;;;;;;37.50;34.00;;;;;12.79;100.00;101949.97;2096967;28;46427;-69
2024/01/29 00:30:16;;;;;;;;;38.50;34.75;;;;;12.77;100.00;101946.47;2095979;28;45659;-69
2024/01/29 00:31:16;;;;;;;;;39.50;35.00;;;;;12.76;100.00;101950.03;2095789;28;46383;-69
2024/01/29 00:32:17;;;;;;;;;32.75;32.00;;;;;12.77;100.00;101948.25;2095819;28;46942;-68
2024/01/29 00:33:18;;;;;;;;;35.75;34.00;;;;;12.76;100.00;101947.38;2091266;28;46189;-69
2024/01/29 00:34:19;;;;;;;;;35.40;33.60;;;;;12.91;100.00;101949.84;2096644;28;46470;-69
2024/01/29 00:35:20;;;;;;;;;37.40;33.60;;;;;12.83;100.00;101949.06;2095874;28;46685;-68
2024/01/29 00:36:20;;;;;;;;;34.50;32.25;;;;;12.78;100.00;101950.00;2097873;28;46578;-68
2024/01/29 00:37:22;;;;;;;;;39.00;33.75;;;;;12.77;100.00;101953.56;2097668;28;45873;-69
2024/01/29 00:38:23;;;;;;;;;36.00;32.40;;;;;12.76;100.00;101952.69;2096782;28;45909;-70
2024/01/29 00:39:23;;;;;;;;;35.50;33.50;;;;;12.75;100.00;101948.25;2097189;28;46364;-69
2024/01/29 00:40:25;;;;;;;;;38.00;34.25;;;;;12.74;100.00;101949.16;2097063;28;45773;-68
2024/01/29 00:41:25;;;;;;;;;39.60;33.80;;;;;12.68;100.00;101949.22;2095961;28;46432;-68
2024/01/29 00:42:25;;;;;;;;;33.50;32.50;;;;;12.66;100.00;101949.22;2096739;28;46793;-69
2024/01/29 00:43:26;;;;;;;;;31.50;30.25;;;;;12.66;100.00;101957.22;2096632;28;46699;-69
2024/01/29 00:44:26;;;;;;;;;32.75;32.00;;;;;12.66;100.00;101951.03;2096610;28;47100;-68
2024/01/29 00:45:27;;;;;;;;;37.25;34.25;;;;;12.64;100.00;101945.72;2096281;28;46796;-68
2024/01/29 00:46:27;;;;;;;;;37.75;34.00;;;;;12.70;100.00;101946.53;2097219;28;45462;-68
2024/01/29 00:47:27;;;;;;;;;31.25;30.25;;;;;12.77;100.00;101942.91;2097139;28;46927;-68
2024/01/29 00:48:28;;;;;;;;;37.75;34.25;;;;;12.77;100.00;101943.78;2098710;28;46064;-67
2024/01/29 00:49:31;;;;;;;;;35.75;33.25;;;;;12.69;100.00;101943.00;2096424;28;46987;-68
2024/01/29 00:50:31;;;;;;;;;31.60;29.80;;;;;12.72;100.00;101945.66;2096973;28;46276;-68
2024/01/29 00:51:32;;;;;;;;;29.25;27.25;;;;;12.87;100.00;101952.56;2096624;28;46215;-68
2024/01/29 00:52:33;;;;;;;;;36.00;32.80;;;;;12.93;100.00;101948.03;2096531;28;46055;-68
2024/01/29 00:53:33;;;;;;;;;32.50;29.00;;;;;12.94;100.00;101944.47;2097274;28;46607;-69
2024/01/29 00:54:33;;;;;;;;;34.75;29.25;;;;;12.79;100.00;101944.66;2095276;28;45228;-68
2024/01/29 00:55:34;;;;;;;;;38.00;33.50;;;;;12.78;100.00;101942.00;2096995;28;46176;-68
2024/01/29 00:56:34;;;;;;;;;39.50;35.75;;;;;12.81;100.00;101942.84;2094912;28;45416;-68
2024/01/29 00:57:34;;;;;;;;;37.00;33.50;;;;;12.76;100.00;101946.47;2097249;28;46148;-67
2024/01/29 00:58:35;;;;;;;;;30.00;29.00;;;;;12.79;100.00;101939.31;2097109;28;48062;-68
2024/01/29 00:59:35;;;;;;;;;32.75;32.00;;;;;12.76;100.00;101947.38;2096379;28;46671;-68
2024/01/29 01:00:38;;;;;;;;;37.75;34.00;;;;;12.75;100.00;101953.59;2094754;28;46658;-69
2024/01/29 01:01:38;;;;;;;;;32.00;31.40;;;;;12.72;100.00;101945.66;2090296;28;46570;-68
2024/01/29 01:02:39;;;;;;;;;36.00;32.50;;;;;12.77;100.00;101950.91;2091294;28;46315;-68
2024/01/29 01:03:39;;;;;;;;;32.75;32.00;;;;;12.68;100.00;101958.09;2088715;28;45950;-68
2024/01/29 01:04:39;;;;;;;;;37.25;34.00;;;;;12.55;100.00;101950.25;2096416;28;46171;-68
2024/01/29 01:05:40;;;;;;;;;27.00;24.00;;;;;12.75;100.00;101956.25;2096464;28;46314;-69
2024/01/29 01:06:40;;;;;;;;;35.75;34.00;;;;;12.59;100.00;101952.00;2096987;28;46409;-69
2024/01/29 01:07:41;;;;;;;;;35.00;32.75;;;;;12.59;100.00;101952.00;2096475;28;46232;-69
2024/01/29 01:08:41;;;;;;;;;37.25;33.50;;;;;12.57;100.00;101949.31;2096129;28;46606;-68
2024/01/29 01:09:42;;;;;;;;;36.75;34.25;;;;;12.81;100.00;101940.19;2093033;28;46374;-68
2024/01/29 01:10:42;;;;;;;;;31.75;31.25;;;;;12.79;100.00;101954.44;2092964;28;46681;-69
2024/01/29 01:11:42;;;;;;;;;34.50;33.00;;;;;12.65;100.00;101951.91;2096848;28;46471;-69
2024/01/29 01:12:43;;;;;;;;;37.25;33.50;;;;;12.65;100.00;101952.81;2096761;28;46198;-68
2024/01/29 01:13:43;;;;;;;;;32.50;30.50;;;;;12.61;100.00;101955.53;2096298;28;46742;-68
2024/01/29 01:14:43;;;;;;;;;31.25;29.50;;;;;12.60;100.00;101953.75;2096973;28;45453;-69
2024/01/29 01:15:44;;;;;;;;;35.25;32.75;;;;;12.65;100.00;101947.47;2096640;28;46368;-69
2024/01/29 01:16:44;;;;;;;;;35.75;34.00;;;;;12.67;100.00;101950.13;2095477;28;46258;-69
2024/01/29 01:17:46;;;;;;;;;36.50;33.50;;;;;12.78;100.00;101944.69;2096868;28;46222;-69
2024/01/29 01:18:46;;;;;;;;;33.20;31.80;;;;;12.64;100.00;101939.50;2096986;28;45043;-68
2024/01/29 01:19:46;;;;;;;;;33.75;32.50;;;;;12.60;100.00;101943.09;2097403;28;46481;-68
2024/01/29 01:20:47;;;;;;;;;36.25;33.00;;;;;12.59;100.00;101933.34;2095747;28;46713;-69
2024/01/29 01:21:48;;;;;;;;;30.00;30.00;;;;;12.61;100.00;101940.44;2095587;28;48183;-69
2024/01/29 01:22:48;;;;;;;;;34.60;33.60;;;;;12.56;100.00;101939.56;2094572;28;46443;-69
2024/01/29 01:23:48;;;;;;;;;30.25;29.50;;;;;12.68;100.00;101939.44;2098992;28;46601;-69
2024/01/29 01:24:49;;;;;;;;;36.50;34.00;;;;;12.60;100.00;101933.34;2095751;28;46148;-68
2024/01/29 01:25:49;;;;;;;;;36.75;32.25;;;;;12.78;100.00;101942.91;2096454;28;45767;-70
2024/01/29 01:26:49;;;;;;;;;32.25;31.75;;;;;12.63;100.00;101941.28;2095298;28;46172;-68
2024/01/29 01:27:53;;;;;;;;;29.25;28.00;;;;;12.60;100.00;101943.09;2088043;28;46899;-68
2024/01/29 01:28:57;;;;;;;;;33.20;32.00;;;;;12.74;100.00;101945.63;2095877;28;46853;-70
2024/01/29 01:29:57;;;;;;;;;32.80;31.80;;;;;12.65;100.00;101939.47;2096386;28;47250;-69
2024/01/29 01:30:57;;;;;;;;;38.25;34.00;;;;;12.77;100.00;101938.47;2096613;28;46424;-68
2024/01/29 01:31:58;;;;;;;;;31.25;29.50;;;;;12.72;100.00;101942.09;2096579;28;45586;-68
2024/01/29 01:33:00;;;;;;;;;28.00;27.20;;;;;12.76;100.00;101944.69;2096577;28;46886;-70
2024/01/29 01:34:01;;;;;;;;;34.00;33.00;;;;;12.83;100.00;101945.50;2095465;28;46566;-69
2024/01/29 01:35:02;;;;;;;;;35.75;33.00;;;;;12.73;100.00;101943.84;2085496;28;45713;-69
2024/01/29 01:36:03;;;;;;;;;34.60;32.20;;;;;12.64;100.00;101936.84;2088597;28;46609;-69
2024/01/29 01:37:03;;;;;;;;;28.50;28.50;;;;;12.64;100.00;101936.84;2099326;27;45026;-69
2024/01/29 01:38:04;;;;;;;;;34.00;32.50;;;;;12.62;100.00;101942.19;2084967;28;46358;-69
2024/01/29 01:39:04;;;;;;;;;29.25;28.00;;;;;12.59;100.00;101946.66;2087372;28;45436;-69
2024/01/29 01:40:05;;;;;;;;;32.00;31.25;;;;;12.74;100.00;101945.63;2096112;28;46781;-69
2024/01/29 01:41:05;;;;;;;;;32.25;31.50;;;;;12.63;100.00;101953.72;2096865;28;46756;-68
2024/01/29 01:42:05;;;;;;;;;31.50;31.00;;;;;12.64;100.00;101955.47;2094741;28;46549;-68
2024/01/29 01:43:26;;;;;;;;;32.50;31.00;;;;;12.66;100.00;101954.56;2092764;28;46165;-69
2024/01/29 01:44:27;;;;;;;;;33.20;32.40;;;;;12.78;100.00;101952.66;2089354;28;46780;-69
2024/01/29 01:45:28;;;;;;;;;31.60;31.00;;;;;12.77;100.00;101954.44;2095204;28;46713;-68
2024/01/29 01:46:29;;;;;;;;;34.00;30.60;;;;;12.70;100.00;101966.06;2096415;28;46806;-68
2024/01/29 01:47:29;;;;;;;;;32.00;28.25;;;;;12.69;100.00;101961.63;2096479;28;45410;-69
2024/01/29 01:48:33;;;;;;;;;35.25;32.50;;;;;12.70;100.00;101959.84;2096859;28;46292;-68
2024/01/29 01:49:34;;;;;;;;;29.40;28.00;;;;;12.71;100.00;101965.19;2096691;28;45607;-68
2024/01/29 01:50:34;;;;;;;;;33.75;32.00;;;;;12.73;100.00;101965.16;2095543;28;45811;-68
2024/01/29 01:51:35;;;;;;;;;36.00;31.75;;;;;12.82;100.00;101960.59;2096309;28;46672;-68
2024/01/29 01:52:37;;;;;;;;;34.20;32.00;;;;;12.77;100.00;101965.09;2095114;28;46541;-68
2024/01/29 01:53:39;;;;;;;;;33.00;30.00;;;;;12.77;100.00;101954.44;2095057;28;46608;-69
2024/01/29 01:54:40;;;;;;;;;33.20;31.40;;;;;12.76;100.00;101960.69;2090153;28;46383;-68
2024/01/29 01:55:40;;;;;;;;;35.50;31.00;;;;;12.75;100.00;101952.72;2096363;28;47108;-68
2024/01/29 01:56:42;;;;;;;;;31.25;29.75;;;;;12.75;100.00;101960.69;2096468;28;46635;-68
2024/01/29 01:57:42;;;;;;;;;32.60;30.60;;;;;12.74;100.00;101956.28;2093214;28;46914;-69
2024/01/29 01:58:43;;;;;;;;;30.00;30.00;;;;;12.80;100.00;101957.06;2096737;28;45570;-69
2024/01/29 01:59:43;;;;;;;;;24.75;24.75;;;;;12.76;100.00;101959.81;2093922;28;46368;-67
2024/01/29 02:00:44;;;;;;;;;32.00;28.25;;;;;12.99;100.00;101963.09;2095443;28;46408;-68
2024/01/29 02:01:45;;;;;;;;;29.50;26.75;;;;;12.98;100.00;101961.34;2095534;28;45592;-68
2024/01/29 02:02:45;;;;;;;;;31.00;29.00;;;;;12.91;100.00;101965.84;2095399;28;46467;-69
2024/01/29 02:03:46;;;;;;;;;23.50;23.50;;;;;12.85;100.00;101971.25;2095805;28;46174;-69
2024/01/29 02:04:46;;;;;;;;;28.50;28.50;;;;;12.81;100.00;101953.50;2096771;28;45942;-67
2024/01/29 02:05:47;;;;;;;;;28.75;27.50;;;;;12.81;100.00;101966.81;2096316;28;46291;-68
2024/01/29 02:06:48;;;;;;;;;30.50;28.25;;;;;12.80;100.00;101958.84;2096714;28;46145;-68
2024/01/29 02:07:48;;;;;;;;;30.60;28.60;;;;;12.82;100.00;101965.94;2095043;28;46341;-68
2024/01/29 02:08:49;;;;;;;;;25.00;25.00;;;;;12.82;100.00;101959.72;2096364;28;46651;-68
2024/01/29 02:09:49;;;;;;;;;29.00;27.50;;;;;12.85;100.00;101965.91;2096346;28;46327;-68
2024/01/29 02:10:52;;;;;;;;;29.25;27.75;;;;;12.84;100.00;101961.50;2094331;28;46821;-68
2024/01/29 02:11:52;;;;;;;;;25.80;25.00;;;;;12.84;100.00;101957.94;2095853;28;46332;-69
2024/01/29 02:12:53;;;;;;;;;32.00;29.75;;;;;12.98;100.00;101961.34;2096389;28;46263;-68
2024/01/29 02:13:53;;;;;;;;;28.75;26.50;;;;;12.86;100.00;101967.69;2096391;28;46675;-68
2024/01/29 02:14:54;;;;;;;;;28.75;27.50;;;;;12.85;100.00;101963.25;2096711;28;46020;-68
2024/01/29 02:15:54;;;;;;;;;32.25;29.50;;;;;12.88;100.00;101962.34;2095357;28;46572;-68
2024/01/29 02:16:54;;;;;;;;;30.50;28.25;;;;;12.86;100.00;101964.13;2094661;28;45122;-69
2024/01/29 02:17:55;;;;;;;;;30.75;29.50;;;;;12.84;100.00;101961.50;2092918;28;45561;-69
2024/01/29 02:18:55;;;;;;;;;33.50;31.50;;;;;12.85;100.00;101965.03;2096317;28;46797;-69
2024/01/29 02:19:56;;;;;;;;;33.50;32.25;;;;;12.88;100.00;101967.66;2096364;28;46631;-68
2024/01/29 02:20:56;;;;;;;;;30.25;30.25;;;;;12.86;100.00;101966.78;2096439;28;46158;-69
2024/01/29 02:21:56;;;;;;;;;29.50;28.50;;;;;12.88;100.00;101975.66;2096336;28;45600;-68
2024/01/29 02:22:57;;;;;;;;;33.00;31.25;;;;;12.86;100.00;101970.34;2095320;28;46623;-68
2024/01/29 02:23:57;;;;;;;;;28.75;28.00;;;;;12.85;100.00;101968.59;2095620;28;46587;-68
2024/01/29 02:24:57;;;;;;;;;33.75;31.00;;;;;12.83;100.00;101967.72;2090638;28;46490;-68
2024/01/29 02:25:58;;;;;;;;;34.75;30.00;;;;;12.85;100.00;101975.69;2094536;28;45541;-68
2024/01/29 02:26:58;;;;;;;;;26.25;26.25;;;;;12.84;100.00;101977.47;2094844;28;46228;-68
2024/01/29 02:27:58;;;;;;;;;32.00;30.25;;;;;12.87;100.00;101974.78;2092039;28;45204;-69
2024/01/29 02:28:59;;;;;;;;;33.25;30.50;;;;;12.89;100.00;101977.41;2094658;28;46472;-69
2024/01/29 02:29:59;;;;;;;;;32.50;32.00;;;;;12.88;100.00;101973.88;2095542;28;46564;-69
2024/01/29 02:30:59;;;;;;;;;29.00;27.75;;;;;12.91;100.00;101979.16;2093584;28;46622;-68
2024/01/29 02:32:00;;;;;;;;;32.25;31.25;;;;;12.90;100.00;101976.50;2093716;28;47234;-68
2024/01/29 02:33:00;;;;;;;;;35.25;32.75;;;;;12.90;100.00;101976.50;2095298;28;46511;-69
2024/01/29 02:34:01;;;;;;;;;28.50;28.50;;;;;12.87;100.00;101976.56;2096466;28;46539;-68
2024/01/29 02:35:01;;;;;;;;;29.75;28.25;;;;;12.83;100.00;101982.78;2096138;28;46718;-68
2024/01/29 02:36:01;;;;;;;;;28.25;27.75;;;;;12.88;100.00;101976.53;2097700;28;46548;-68
2024/01/29 02:37:02;;;;;;;;;29.75;29.25;;;;;12.86;100.00;101975.66;2096469;28;45832;-69
2024/01/29 02:38:02;;;;;;;;;34.50;32.75;;;;;12.86;100.00;101973.00;2096509;28;46365;-69
2024/01/29 02:39:03;;;;;;;;;32.50;31.25;;;;;12.95;100.00;101977.31;2097591;28;46519;-69
2024/01/29 02:40:07;;;;;;;;;34.75;31.25;;;;;12.89;100.00;101974.75;2095616;28;46581;-69
2024/01/29 02:41:08;;;;;;;;;32.20;30.80;;;;;12.88;100.00;101971.19;2096389;28;46432;-69
2024/01/29 02:42:09;;;;;;;;;28.20;26.80;;;;;12.85;100.00;101970.38;2096888;28;46668;-69
2024/01/29 02:43:09;;;;;;;;;27.25;26.00;;;;;12.83;100.00;101969.47;2096141;28;46619;-69
2024/01/29 02:44:10;;;;;;;;;34.00;30.75;;;;;12.82;100.00;101968.59;2097136;28;46260;-69
2024/01/29 02:45:10;;;;;;;;;32.50;31.50;;;;;12.85;100.00;101963.25;2097759;28;46408;-69
2024/01/29 02:46:10;;;;;;;;;30.75;29.00;;;;;12.81;100.00;101969.50;2095561;28;46957;-68
2024/01/29 02:47:11;;;;;;;;;30.25;29.75;;;;;12.78;100.00;101974.84;2097972;28;45823;-69
2024/01/29 02:48:11;;;;;;;;;30.75;28.50;;;;;12.76;100.00;101963.34;2095821;28;45572;-71
2024/01/29 02:49:12;;;;;;;;;29.00;28.50;;;;;12.76;100.00;101962.47;2097744;28;46216;-69
2024/01/29 02:50:12;;;;;;;;;30.00;27.50;;;;;12.68;100.00;101970.53;2097681;28;46904;-69
2024/01/29 02:51:12;;;;;;;;;30.25;28.50;;;;;12.70;100.00;101965.19;2097655;28;47417;-69
2024/01/29 02:52:13;;;;;;;;;32.75;29.75;;;;;12.71;100.00;101977.63;2096956;28;46658;-68
2024/01/29 02:53:13;;;;;;;;;27.50;26.50;;;;;12.80;100.00;101969.50;2097417;28;46659;-68
2024/01/29 02:54:14;;;;;;;;;28.25;27.50;;;;;12.66;100.00;101970.53;2095676;28;45546;-68
2024/01/29 02:55:14;;;;;;;;;29.75;28.50;;;;;12.66;100.00;101969.66;2097177;28;46481;-68
2024/01/29 02:56:14;;;;;;;;;36.25;33.25;;;;;12.66;100.00;101969.66;2096886;28;46421;-69
2024/01/29 02:57:15;;;;;;;;;32.75;29.50;;;;;12.65;100.00;101966.13;2098063;28;46557;-68
2024/01/29 02:58:15;;;;;;;;;27.75;27.00;;;;;12.72;100.00;101980.28;2097647;28;46834;-68
2024/01/29 02:59:15;;;;;;;;;23.50;23.25;;;;;12.65;100.00;101971.44;2095717;28;46319;-68
2024/01/29 03:00:16;;;;;;;;;24.25;23.00;;;;;12.63;100.00;101975.91;2088046;28;46281;-70
2024/01/29 03:01:19;;;;;;;;;27.25;27.25;;;;;12.60;100.00;101967.97;2094441;28;45911;-69
2024/01/29 03:02:20;;;;;;;;;27.40;27.20;;;;;12.61;100.00;101966.19;2104175;28;46377;-68
2024/01/29 03:03:20;;;;;;;;;28.50;28.00;;;;;12.72;100.00;101969.63;2097546;28;46401;-68
2024/01/29 03:04:21;;;;;;;;;32.50;30.75;;;;;12.59;100.00;101965.31;2097588;28;46540;-67
2024/01/29 03:05:21;;;;;;;;;27.25;24.25;;;;;12.85;100.00;101975.69;2097545;28;46447;-67
2024/01/29 03:06:21;;;;;;;;;27.50;26.00;;;;;12.61;100.00;101968.84;2097348;28;46202;-67
2024/01/29 03:07:22;;;;;;;;;14.00;13.25;;;;;12.63;100.00;101975.03;2097602;28;46281;-69
2024/01/29 03:08:22;;;;;;;;;29.25;29.25;;;;;12.59;100.00;101967.97;2096881;28;46716;-68
2024/01/29 03:09:22;;;;;;;;;29.25;28.50;;;;;12.57;100.00;101975.06;2095068;28;46416;-68
2024/01/29 03:10:23;;;;;;;;;24.50;24.50;;;;;12.58;100.00;101972.41;2098057;28;46213;-68
2024/01/29 03:11:23;;;;;;;;;26.50;25.50;;;;;12.59;100.00;101974.19;2097780;28;47175;-67
2024/01/29 03:12:24;;;;;;;;;26.50;25.00;;;;;12.56;100.00;101970.66;2097543;28;46129;-67
2024/01/29 03:13:24;;;;;;;;;25.75;25.75;;;;;12.58;100.00;101967.09;2097449;28;46103;-68
2024/01/29 03:14:24;;;;;;;;;25.75;24.50;;;;;12.60;100.00;101965.28;2104234;28;45512;-68
2024/01/29 03:15:25;;;;;;;;;29.50;24.75;;;;;12.58;100.00;101966.22;2104607;27;46603;-68
2024/01/29 03:16:25;;;;;;;;;25.50;24.00;;;;;12.56;100.00;101967.97;2105087;28;46796;-68
2024/01/29 03:17:25;;;;;;;;;26.25;25.00;;;;;12.70;100.00;101971.38;2103300;27;46608;-68
2024/01/29 03:18:26;;;;;;;;;23.00;23.00;;;;;12.69;100.00;101972.28;2108660;27;46119;-68
2024/01/29 03:19:26;;;;;;;;;24.00;24.00;;;;;12.63;100.00;101975.91;2105135;28;47045;-69
2024/01/29 03:20:27;;;;;;;;;29.00;27.75;;;;;12.61;100.00;101977.72;2105142;28;46129;-68
2024/01/29 03:21:27;;;;;;;;;26.50;24.50;;;;;12.71;100.00;101972.28;2105294;28;46584;-68
2024/01/29 03:22:27;;;;;;;;;24.00;23.00;;;;;12.90;100.00;101972.06;2105261;28;45499;-69
2024/01/29 03:23:28;;;;;;;;;27.00;26.25;;;;;12.94;100.00;101975.56;2104517;28;46695;-69
2024/01/29 03:24:28;;;;;;;;;28.00;26.50;;;;;12.81;100.00;101972.16;2105057;28;46281;-68
2024/01/29 03:25:28;;;;;;;;;28.75;25.50;;;;;12.77;100.00;101974.88;2104397;27;46239;-69
2024/01/29 03:26:29;;;;;;;;;25.00;24.50;;;;;12.86;100.00;101973.00;2104917;28;45981;-68
2024/01/29 03:27:29;;;;;;;;;26.00;23.50;;;;;12.62;100.00;101982.13;2105283;28;46783;-68
2024/01/29 03:28:29;;;;;;;;;23.50;23.00;;;;;12.58;100.00;101982.19;2104623;28;45639;-68
2024/01/29 03:29:30;;;;;;;;;20.50;20.50;;;;;12.70;100.00;101976.72;2095896;28;46310;-68
2024/01/29 03:30:30;;;;;;;;;23.50;23.25;;;;;12.73;100.00;101975.81;2096059;28;46245;-68
2024/01/29 03:31:30;;;;;;;;;26.25;26.25;;;;;12.81;100.00;101977.47;2087663;28;45917;-67
2024/01/29 03:32:31;;;;;;;;;27.25;24.75;;;;;12.77;100.00;101975.75;2087722;28;46696;-67
2024/01/29 03:33:31;;;;;;;;;26.00;23.00;;;;;12.78;100.00;101985.50;2103737;27;45889;-68
2024/01/29 03:34:31;;;;;;;;;23.00;22.75;;;;;12.79;100.00;101978.41;2104812;28;46564;-68
2024/01/29 03:35:32;;;;;;;;;25.75;25.75;;;;;12.80;100.00;101975.72;2104505;27;46945;-68
2024/01/29 03:36:32;;;;;;;;;24.50;24.25;;;;;12.82;100.00;101973.91;2104679;28;45548;-69
2024/01/29 03:37:32;;;;;;;;;22.75;21.00;;;;;12.85;100.00;101975.69;2105032;28;45744;-69
2024/01/29 03:38:34;;;;;;;;;22.50;22.50;;;;;12.88;100.00;101978.31;2095912;28;46778;-69
2024/01/29 03:39:34;;;;;;;;;22.40;21.00;;;;;12.82;100.00;101975.69;2096363;28;47216;-69
2024/01/29 03:40:34;;;;;;;;;26.50;23.75;;;;;12.79;100.00;101981.94;2104206;28;46326;-68
2024/01/29 03:41:35;;;;;;;;;27.00;24.00;;;;;12.82;100.00;101970.38;2105337;28;46342;-68
2024/01/29 03:42:35;;;;;;;;;27.50;26.25;;;;;12.98;100.00;101971.09;2103926;28;46563;-67
2024/01/29 03:43:35;;;;;;;;;22.25;21.75;;;;;13.00;100.00;101975.50;2103914;28;46772;-68
2024/01/29 03:44:36;;;;;;;;;22.75;22.25;;;;;12.87;100.00;101973.88;2104866;27;46315;-69
2024/01/29 03:45:36;;;;;;;;;23.00;23.00;;;;;12.96;100.00;101972.00;2104287;27;46258;-68
2024/01/29 03:46:36;;;;;;;;;23.75;21.25;;;;;12.86;100.00;101973.00;2097828;28;46223;-69
2024/01/29 03:47:37;;;;;;;;;19.25;19.25;;;;;12.97;100.00;101972.91;2095446;28;46611;-68
2024/01/29 03:48:37;;;;;;;;;19.00;16.75;;;;;12.97;100.00;101972.91;2097015;28;46627;-68
2024/01/29 03:49:37;;;;;;;;;22.25;22.25;;;;;12.90;100.00;101963.19;2095914;28;46600;-68
2024/01/29 03:50:38;;;;;;;;;24.75;24.25;;;;;12.82;100.00;101963.25;2100627;28;46310;-67
2024/01/29 03:51:38;;;;;;;;;21.25;21.00;;;;;12.80;100.00;101967.72;2097154;28;46506;-68
2024/01/29 03:52:39;;;;;;;;;22.50;21.00;;;;;12.80;100.00;101965.06;2087176;28;46106;-68
2024/01/29 03:53:39;;;;;;;;;21.00;20.00;;;;;12.80;100.00;101965.06;2088160;28;46698;-67
2024/01/29 03:54:39;;;;;;;;;23.75;20.25;;;;;12.79;100.00;101963.31;2092433;28;46632;-68
2024/01/29 03:55:39;;;;;;;;;22.25;19.50;;;;;12.81;100.00;101960.63;2097005;28;45889;-69
2024/01/29 03:56:40;;;;;;;;;19.00;19.00;;;;;12.85;100.00;101965.03;2096563;28;46691;-69
2024/01/29 03:57:40;;;;;;;;;23.25;22.00;;;;;12.86;100.00;101965.00;2094849;28;45970;-68
2024/01/29 03:58:41;;;;;;;;;18.25;18.25;;;;;12.84;100.00;101965.94;2097254;28;46171;-68
2024/01/29 03:59:42;;;;;;;;;20.00;18.60;;;;;12.92;100.00;101964.94;2093363;28;46313;-69
2024/01/29 04:00:42;;;;;;;;;25.75;22.50;;;;;12.84;100.00;101965.94;2096705;28;46460;-69
2024/01/29 04:01:42;;;;;;;;;25.25;21.00;;;;;12.88;100.00;101968.53;2096247;28;46204;-68
2024/01/29 04:02:46;;;;;;;;;21.50;20.75;;;;;12.86;100.00;101964.13;2096759;28;45944;-67
2024/01/29 04:03:46;;;;;;;;;20.00;17.60;;;;;12.84;100.00;101966.81;2096753;28;45982;-69
2024/01/29 04:04:48;;;;;;;;;20.50;20.50;;;;;12.83;100.00;101969.47;2096421;28;46348;-68
2024/01/29 04:05:48;;;;;;;;;21.20;20.20;;;;;12.86;100.00;101967.69;2097777;28;46738;-67
2024/01/29 04:06:48;;;;;;;;;22.50;20.75;;;;;12.95;100.00;101962.22;2097356;28;46507;-69
2024/01/29 04:07:49;;;;;;;;;22.25;19.25;;;;;12.87;100.00;101972.09;2095789;28;46565;-70
2024/01/29 04:08:49;;;;;;;;;20.00;20.00;;;;;12.87;100.00;101973.88;2096881;28;46838;-68
2024/01/29 04:09:49;;;;;;;;;24.50;24.50;;;;;12.77;100.00;101962.44;2097428;28;46242;-68
2024/01/29 04:10:50;;;;;;;;;23.75;23.50;;;;;12.71;100.00;101975.84;2096592;28;46558;-70
2024/01/29 04:11:50;;;;;;;;;23.00;23.00;;;;;12.76;100.00;101970.44;2095562;28;46075;-68
2024/01/29 04:12:51;;;;;;;;;24.50;21.75;;;;;12.74;100.00;101972.25;2096828;28;46458;-68
2024/01/29 04:13:51;;;;;;;;;24.75;22.50;;;;;12.91;100.00;101964.94;2096783;28;46228;-67
2024/01/29 04:14:52;;;;;;;;;24.00;21.75;;;;;12.74;100.00;101969.59;2095897;28;46605;-68
2024/01/29 04:15:53;;;;;;;;;21.00;21.00;;;;;12.90;100.00;101963.19;2095957;28;46860;-69
2024/01/29 04:16:53;;;;;;;;;21.80;21.40;;;;;12.86;100.00;101959.69;2097158;28;45627;-68
2024/01/29 04:17:54;;;;;;;;;21.00;20.50;;;;;12.65;100.00;101963.44;2096040;28;46817;-67
2024/01/29 04:18:55;;;;;;;;;18.60;17.80;;;;;12.71;100.00;101962.53;2097107;28;45725;-68
2024/01/29 04:19:55;;;;;;;;;24.75;24.75;;;;;12.68;100.00;101962.53;2101578;28;45711;-68
2024/01/29 04:20:56;;;;;;;;;21.75;20.50;;;;;12.89;100.00;101961.44;2098850;28;46159;-69
2024/01/29 04:21:57;;;;;;;;;19.50;18.00;;;;;12.69;100.00;101961.63;2097409;28;46809;-68
2024/01/29 04:22:57;;;;;;;;;22.50;22.00;;;;;12.67;100.00;101960.78;2096064;28;46870;-69
2024/01/29 04:23:57;;;;;;;;;23.00;22.00;;;;;12.70;100.00;101951.84;2096463;28;46485;-68
2024/01/29 04:24:59;;;;;;;;;20.00;20.00;;;;;12.65;100.00;101963.44;2096998;28;46183;-68
2024/01/29 04:25:59;;;;;;;;;22.60;21.00;;;;;12.67;100.00;101963.44;2096291;28;46945;-69
2024/01/29 04:26:59;;;;;;;;;21.50;20.25;;;;;12.56;100.00;101962.66;2096912;28;46734;-68
2024/01/29 04:27:59;;;;;;;;;19.50;18.00;;;;;12.55;100.00;101972.44;2095688;28;45465;-68
2024/01/29 04:29:00;;;;;;;;;23.50;21.25;;;;;12.59;100.00;101967.97;2097122;28;46885;-69
2024/01/29 04:30:02;;;;;;;;;21.00;21.00;;;;;12.54;100.00;101972.44;2089417;28;46622;-68
2024/01/29 04:31:03;;;;;;;;;20.00;18.40;;;;;12.55;100.00;101967.09;2096334;28;46378;-69
2024/01/29 04:32:04;;;;;;;;;22.00;20.50;;;;;12.62;100.00;101965.28;2097020;28;46578;-68